Time;durP1;ratioP1;P1;durP2;ratioP2;P2;SDS_P1;SDS_P2;PMS_P1;PMS_P2;Temp;Humidity;BMP_temperature;BMP_pressure;BME280_temperature;BME280_humidity;BME280_pressure;Samples;Min_cycle;Max_cycle;Signal;HPM_P1;HPM_P2
2023/02/26 00:01:44;;;;;;;2.40;0.93;;;;;;;-1.88;100.00;97892.69;15284142;19;20102;-53
2023/02/26 00:07:09;;;;;;;1.98;0.95;;;;;;;-1.91;100.00;97908.75;15288545;19;20078;-50
2023/02/26 00:12:37;;;;;;;2.20;0.90;;;;;;;-1.88;100.00;97903.25;15287106;19;20021;-53
2023/02/26 00:18:08;;;;;;;4.47;1.10;;;;;;;-1.92;100.00;97913.16;15284014;19;20488;-52
2023/02/26 00:23:33;;;;;;;3.42;1.10;;;;;;;-1.93;100.00;97922.03;15288116;19;20019;-51
2023/02/26 00:29:02;;;;;;;2.75;1.00;;;;;;;-1.89;100.00;97934.09;15279801;19;20014;-53
2023/02/26 00:34:27;;;;;;;3.47;1.13;;;;;;;-1.88;100.00;97938.44;15286282;19;20352;-50
2023/02/26 00:40:00;;;;;;;4.20;1.08;;;;;;;-1.93;100.00;97935.22;15277341;19;20019;-51
2023/02/26 00:45:28;;;;;;;3.58;1.13;;;;;;;-1.95;100.00;97944.19;15284486;19;20415;-50
2023/02/26 00:51:00;;;;;;;3.72;1.10;;;;;;;-1.98;100.00;97947.88;15282542;19;20751;-52
2023/02/26 00:56:24;;;;;;;2.88;1.10;;;;;;;-2.04;100.00;97950.88;15284439;19;20025;-50
2023/02/26 01:01:52;;;;;;;5.13;1.15;;;;;;;-2.09;100.00;97958.25;15275777;19;20436;-51
2023/02/26 01:07:19;;;;;;;2.55;1.17;;;;;;;-2.09;100.00;97958.25;15283461;19;20070;-53
2023/02/26 01:12:44;;;;;;;3.72;1.10;;;;;;;-2.04;100.00;97958.78;15282894;19;20086;-53
2023/02/26 01:18:16;;;;;;;5.28;1.10;;;;;;;-2.15;100.00;97959.47;15282169;19;20362;-51
2023/02/26 01:23:46;;;;;;;4.25;1.10;;;;;;;-2.18;100.00;97954.38;15282845;19;20352;-52
2023/02/26 01:29:18;;;;;;;3.33;1.10;;;;;;;-2.22;100.00;97968.69;15265208;19;20039;-57
2023/02/26 01:34:50;;;;;;;4.18;1.30;;;;;;;-2.22;100.00;97973.94;15279572;19;20031;-57
2023/02/26 01:40:41;;;;;;;3.70;1.20;;;;;;;-2.28;100.00;97972.53;15279343;19;20050;-58
2023/02/26 01:46:12;;;;;;;3.70;1.20;;;;;;;-2.28;100.00;97983.09;15283607;19;20019;-56
2023/02/26 01:51:55;;;;;;;4.82;1.30;;;;;;;-2.30;100.00;97982.34;15286219;19;20474;-56
2023/02/26 01:57:23;;;;;;;4.93;1.40;;;;;;;-2.38;100.00;97982.81;15296954;19;20035;-57
2023/02/26 02:02:48;;;;;;;3.63;1.33;;;;;;;-2.41;100.00;97993.53;15297358;19;20497;-56
2023/02/26 02:08:16;;;;;;;3.25;1.40;;;;;;;-2.38;100.00;97989.84;15290534;19;20022;-52
2023/02/26 02:13:54;;;;;;;4.43;1.60;;;;;;;-2.43;100.00;97998.03;15300897;19;20011;-55
2023/02/26 02:19:45;;;;;;;4.20;1.40;;;;;;;-2.49;100.00;98009.81;15293524;19;20030;-56
2023/02/26 02:25:31;;;;;;;2.47;1.70;;;;;;;-2.44;100.00;98017.44;15298448;19;21316;-55
2023/02/26 02:31:13;;;;;;;4.07;1.60;;;;;;;-2.46;100.00;98029.03;15292903;19;20054;-55
2023/02/26 02:36:44;;;;;;;2.72;1.30;;;;;;;-2.42;100.00;98027.94;15290112;19;20015;-53
2023/02/26 02:42:12;;;;;;;2.15;1.40;;;;;;;-2.43;100.00;98040.25;15290934;19;20036;-56
2023/02/26 02:47:44;;;;;;;4.13;1.40;;;;;;;-2.59;100.00;98040.28;15292362;19;20483;-57
2023/02/26 02:53:13;;;;;;;3.58;1.60;;;;;;;-2.52;100.00;98052.16;15296655;19;20018;-55
2023/02/26 02:58:41;;;;;;;1.70;1.60;;;;;;;-2.55;100.00;98060.28;15292512;19;20035;-54
2023/02/26 03:04:14;;;;;;;2.10;1.55;;;;;;;-2.48;100.00;98048.44;15290601;19;20018;-56
2023/02/26 03:09:39;;;;;;;1.83;1.58;;;;;;;-2.48;100.00;98066.91;15285249;19;20022;-56
2023/02/26 03:15:03;;;;;;;2.20;1.48;;;;;;;-2.43;100.00;98071.06;15297785;19;20474;-55
2023/02/26 03:20:36;;;;;;;1.42;1.23;;;;;;;-2.48;100.00;98074.81;15290042;19;20365;-52
2023/02/26 03:26:06;;;;;;;1.63;1.20;;;;;;;-2.41;100.00;98090.31;15307297;19;20026;-57
2023/02/26 03:31:41;;;;;;;3.30;1.30;;;;;;;-2.38;100.00;98090.09;15291675;19;20022;-57
2023/02/26 03:37:20;;;;;;;2.50;1.25;;;;;;;-2.38;100.00;98100.66;15292247;19;20480;-56
2023/02/26 03:42:49;;;;;;;1.50;1.17;;;;;;;-2.43;100.00;98103.56;15282357;19;20424;-53
2023/02/26 03:48:19;;;;;;;1.83;1.30;;;;;;;-2.37;100.00;98128.75;15287417;19;20479;-54
2023/02/26 03:53:53;;;;;;;2.63;1.20;;;;;;;-2.37;100.00;98131.38;15292705;19;20032;-53
2023/02/26 03:59:23;;;;;;;2.15;1.40;;;;;;;-2.45;100.00;98133.63;15285619;19;20030;-53
2023/02/26 04:05:13;;;;;;;2.92;1.50;;;;;;;-2.46;100.00;98145.09;15286880;19;20047;-56
2023/02/26 04:10:46;;;;;;;2.33;1.30;;;;;;;-2.48;100.00;98161.84;15284416;19;20019;-56
2023/02/26 04:16:11;;;;;;;2.40;1.45;;;;;;;-2.48;100.00;98172.41;15278028;19;20098;-55
2023/02/26 04:21:36;;;;;;;2.75;1.60;;;;;;;-2.43;100.00;98181.88;15286159;19;20018;-55
2023/02/26 04:27:03;;;;;;;2.17;1.70;;;;;;;-2.51;100.00;98180.47;15284995;19;20021;-55
2023/02/26 04:32:29;;;;;;;2.20;1.50;;;;;;;-2.51;100.00;98180.47;15285606;19;20058;-54
2023/02/26 04:37:57;;;;;;;2.88;1.67;;;;;;;-2.55;100.00;98189.53;15281695;19;20105;-56
2023/02/26 04:43:25;;;;;;;2.20;1.48;;;;;;;-2.54;100.00;98211.47;15283445;19;20404;-55
2023/02/26 04:49:06;;;;;;;1.67;1.40;;;;;;;-2.58;100.00;98208.16;15275522;19;20021;-57
2023/02/26 04:54:31;;;;;;;2.72;1.50;;;;;;;-2.59;100.00;98213.50;15287914;19;20486;-56
2023/02/26 05:00:05;;;;;;;3.05;1.70;;;;;;;-2.60;100.00;98223.19;15281172;19;20021;-55
2023/02/26 05:05:30;;;;;;;3.28;1.50;;;;;;;-2.58;100.00;98231.88;15286704;19;20014;-55
2023/02/26 05:10:55;;;;;;;2.70;1.50;;;;;;;-2.59;100.00;98237.25;15283505;19;20428;-57
2023/02/26 05:16:22;;;;;;;4.45;1.60;;;;;;;-2.59;100.00;98247.81;15283886;19;20014;-56
2023/02/26 05:21:48;;;;;;;2.72;1.38;;;;;;;-2.72;100.00;98260.78;15276905;19;20022;-51
2023/02/26 05:27:13;;;;;;;4.57;1.70;;;;;;;-2.79;100.00;98254.97;15283193;19;20563;-53
2023/02/26 05:32:42;;;;;;;2.60;1.42;;;;;;;-2.87;100.00;98265.09;15299033;19;20579;-51
2023/02/26 05:38:06;;;;;;;4.10;1.50;;;;;;;-2.90;100.00;98278.41;15294192;19;20090;-52
2023/02/26 05:43:32;;;;;;;2.10;1.45;;;;;;;-2.91;100.00;98287.25;15293806;19;20028;-54
2023/02/26 05:48:59;;;;;;;2.92;1.30;;;;;;;-2.93;100.00;98300.53;15294335;19;20313;-51
2023/02/26 05:54:24;;;;;;;1.88;1.23;;;;;;;-2.93;100.00;98316.34;15294111;19;20040;-56
2023/02/26 05:59:48;;;;;;;3.10;1.60;;;;;;;-2.94;100.00;98322.53;15294369;19;20017;-52
2023/02/26 06:05:25;;;;;;;2.67;1.40;;;;;;;-2.96;100.00;98340.22;15295946;19;20086;-51
2023/02/26 06:10:51;;;;;;;1.90;1.50;;;;;;;-2.95;100.00;98349.84;15289216;19;20552;-51
2023/02/26 06:16:16;;;;;;;3.60;1.30;;;;;;;-2.95;100.00;98363.88;15294700;19;20385;-55
2023/02/26 06:21:43;;;;;;;1.42;1.20;;;;;;;-2.95;100.00;98370.91;15292449;19;20019;-51
2023/02/26 06:27:08;;;;;;;2.42;1.55;;;;;;;-2.96;100.00;98375.34;15291437;19;20028;-54
2023/02/26 06:32:33;;;;;;;2.20;1.30;;;;;;;-2.93;100.00;98390.16;15297601;19;20078;-55
2023/02/26 06:38:00;;;;;;;4.32;1.30;;;;;;;-2.92;100.00;98394.50;15288703;19;20543;-54
2023/02/26 06:43:26;;;;;;;1.45;1.05;;;;;;;-2.90;100.00;98399.69;15289510;19;20085;-51
2023/02/26 06:48:51;;;;;;;2.17;1.15;;;;;;;-2.90;100.00;98413.72;15282174;19;20043;-53
2023/02/26 06:54:18;;;;;;;2.47;1.42;;;;;;;-2.88;100.00;98424.19;15288596;19;20025;-47
2023/02/26 06:59:43;;;;;;;2.78;1.40;;;;;;;-2.85;100.00;98422.25;15283578;19;20023;-49
2023/02/26 07:05:07;;;;;;;3.15;1.25;;;;;;;-2.82;100.00;98445.84;15293192;19;20029;-45
2023/02/26 07:10:35;;;;;;;2.13;1.08;;;;;;;-2.79;100.00;98458.00;15287554;19;20404;-49
2023/02/26 07:15:59;;;;;;;2.13;1.20;;;;;;;-2.69;100.00;98450.50;15293743;19;20010;-46
2023/02/26 07:21:24;;;;;;;2.67;1.20;;;;;;;-2.58;100.00;98457.84;15284279;19;20047;-48
2023/02/26 07:26:51;;;;;;;2.65;1.20;;;;;;;-2.55;100.00;98455.94;15285518;19;20021;-49
2023/02/26 07:32:16;;;;;;;2.28;1.25;;;;;;;-2.54;100.00;98464.69;15289425;19;20082;-49
2023/02/26 07:37:40;;;;;;;2.97;1.10;;;;;;;-2.51;100.00;98475.94;15288675;19;20014;-46
2023/02/26 07:43:07;;;;;;;2.00;1.10;;;;;;;-2.53;100.00;98495.41;15286811;19;20027;-50
2023/02/26 07:48:32;;;;;;;2.53;1.20;;;;;;;-2.53;100.00;98498.88;15285225;19;20022;-47
2023/02/26 07:53:58;;;;;;;3.78;1.20;;;;;;;-2.48;100.00;98499.53;15287049;19;20018;-51
2023/02/26 07:59:25;;;;;;;2.83;1.10;;;;;;;-2.48;100.00;98515.34;15276631;19;20028;-46
2023/02/26 08:04:50;;;;;;;2.50;1.30;;;;;;;-2.39;100.00;98516.69;15284803;19;20018;-51
2023/02/26 08:10:15;;;;;;;3.45;1.30;;;;;;;-2.33;100.00;98528.72;15279430;19;20089;-47
2023/02/26 08:15:42;;;;;;;2.53;1.20;;;;;;;-2.31;100.00;98524.22;15283244;19;20018;-47
2023/02/26 08:21:09;;;;;;;3.28;1.20;;;;;;;-2.19;100.00;98528.88;15265954;19;20766;-49
2023/02/26 08:26:33;;;;;;;2.80;1.02;;;;;;;-2.13;100.00;98540.03;15286295;19;20070;-49
2023/02/26 08:32:00;;;;;;;2.25;1.00;;;;;;;-2.06;100.00;98546.72;15278926;19;20510;-49
2023/02/26 08:37:25;;;;;;;2.08;1.15;;;;;;;-2.00;100.00;98558.75;15285762;19;20028;-48
2023/02/26 08:42:51;;;;;;;1.85;0.98;;;;;;;-1.99;100.00;98555.16;15282617;19;20018;-49
2023/02/26 08:48:19;;;;;;;2.65;1.10;;;;;;;-1.98;100.00;98564.78;15281310;19;20029;-49
2023/02/26 08:53:45;;;;;;;1.55;1.00;;;;;;;-1.86;100.00;98578.22;15282621;19;20624;-49
2023/02/26 08:59:11;;;;;;;2.50;0.88;;;;;;;-1.83;100.00;98579.84;15280226;19;20025;-50
2023/02/26 09:04:39;;;;;;;2.95;1.00;;;;;;;-1.74;100.00;98584.63;15273340;19;20021;-49
2023/02/26 09:10:04;;;;;;;2.30;0.93;;;;;;;-1.64;100.00;98602.66;15280802;19;20081;-48
2023/02/26 09:15:29;;;;;;;2.67;1.10;;;;;;;-1.55;100.00;98608.31;15284138;19;20491;-47
2023/02/26 09:21:03;;;;;;;3.15;1.17;;;;;;;-1.50;100.00;98620.44;15276805;19;20426;-47
2023/02/26 09:26:28;;;;;;;2.20;0.95;;;;;;;-1.47;100.00;98625.56;15281325;19;20033;-51
2023/02/26 09:31:52;;;;;;;2.20;1.00;;;;;;;-1.35;100.00;98630.19;15280322;19;20021;-49
2023/02/26 09:37:20;;;;;;;2.97;1.15;;;;;;;-1.41;100.00;98641.09;15276956;19;20042;-47
2023/02/26 09:43:01;;;;;;;3.33;1.20;;;;;;;-1.46;100.00;98651.91;15278071;19;20022;-48
2023/02/26 09:48:30;;;;;;;2.10;1.20;;;;;;;-1.46;100.00;98648.41;15280596;19;20010;-52
2023/02/26 09:53:59;;;;;;;2.15;1.10;;;;;;;-1.61;100.00;98666.78;15282180;19;20006;-50
2023/02/26 09:59:25;;;;;;;2.45;1.23;;;;;;;-1.40;100.00;98669.22;15278771;19;20028;-49
2023/02/26 10:04:59;;;;;;;4.95;1.20;;;;;;;-1.41;100.00;98684.22;15276221;19;20094;-49
2023/02/26 10:10:37;;;;;;;1.55;0.90;;;;;;;-1.41;100.00;98694.78;15272070;19;20090;-50
2023/02/26 10:16:16;;;;;;;1.95;1.15;;;;;;;-1.32;100.00;98693.47;14777492;19;9999716;-51
2023/02/26 10:21:45;;;;;;;2.15;0.80;;;;;;;-1.27;100.00;98686.16;15290918;19;20765;-50
2023/02/26 10:27:19;;;;;;;1.63;0.80;;;;;;;-1.04;100.00;98685.88;15290758;19;20030;-48
2023/02/26 10:32:52;;;;;;;1.83;0.80;;;;;;;-0.78;100.00;98698.56;15290061;19;20018;-49
2023/02/26 10:38:21;;;;;;;1.20;0.75;;;;;;;-0.64;100.00;98697.81;15269706;19;20022;-48
2023/02/26 10:43:51;;;;;;;1.85;0.95;;;;;;;-0.52;100.00;98698.94;15283733;19;20035;-47
2023/02/26 10:49:38;;;;;;;1.65;0.85;;;;;;;-0.47;100.00;98710.09;15287681;19;20018;-51
2023/02/26 10:55:25;;;;;;;1.40;0.75;;;;;;;-0.35;100.00;98708.59;15289927;19;20058;-47
2023/02/26 11:00:55;;;;;;;3.15;1.05;;;;;;;-0.15;100.00;98717.22;15288543;19;20017;-49
2023/02/26 11:06:25;;;;;;;1.20;0.80;;;;;;;-0.11;100.00;98715.22;15289715;19;20010;-49
2023/02/26 11:11:55;;;;;;;1.30;0.80;;;;;;;-0.01;100.00;98714.63;15287777;19;20078;-48
2023/02/26 11:17:28;;;;;;;1.15;0.80;;;;;;;0.08;100.00;98710.63;15285804;19;20738;-49
2023/02/26 11:23:02;;;;;;;2.75;0.70;;;;;;;0.07;100.00;98708.03;15281483;19;20013;-48
2023/02/26 11:28:33;;;;;;;1.30;0.65;;;;;;;0.00;100.00;98702.25;15284012;19;20011;-47
2023/02/26 11:34:01;;;;;;;1.42;0.75;;;;;;;0.04;100.00;98708.22;15288938;19;20661;-47
2023/02/26 11:39:28;;;;;;;1.40;0.70;;;;;;;-0.07;100.00;98699.13;15281716;19;20482;-50
2023/02/26 11:44:55;;;;;;;1.15;0.70;;;;;;;-0.06;100.00;98705.25;15278841;19;20020;-48
2023/02/26 11:50:24;;;;;;;0.85;0.70;;;;;;;0.02;100.00;98707.47;15284739;19;20029;-51
2023/02/26 11:55:53;;;;;;;1.20;0.68;;;;;;;0.21;100.00;98701.97;15285826;19;20679;-52
2023/02/26 12:01:21;;;;;;;2.25;0.70;;;;;;;0.27;100.00;98696.28;15284311;19;20014;-50
2023/02/26 12:06:48;;;;;;;1.15;0.60;;;;;;;0.00;100.00;98707.56;15286244;19;20569;-48
2023/02/26 12:12:29;;;;;;;1.45;0.60;;;;;;;0.15;100.00;98716.41;15284694;19;20027;-48
2023/02/26 12:18:12;;;;;;;2.00;0.60;;;;;;;0.12;100.00;98712.13;15282397;19;20374;-52
2023/02/26 12:24:21;;;;;;;1.00;0.75;;;;;;;0.34;100.00;98704.75;15281674;19;20024;-49
2023/02/26 12:29:57;;;;;;;0.82;0.50;;;;;;;0.42;100.00;98705.13;15284444;19;20014;-51
2023/02/26 12:35:46;;;;;;;0.82;0.50;;;;;;;0.54;100.00;98715.03;15286913;19;20027;-50
2023/02/26 12:41:24;;;;;;;1.08;0.50;;;;;;;0.58;100.00;98716.56;15281182;19;20376;-49
2023/02/26 12:47:05;;;;;;;0.80;0.50;;;;;;;0.65;100.00;98718.88;15285569;19;20014;-53
2023/02/26 12:52:47;;;;;;;1.05;0.70;;;;;;;0.62;100.00;98730.47;15277199;19;20539;-49
2023/02/26 12:58:34;;;;;;;2.05;0.45;;;;;;;0.57;100.00;98738.72;15283618;19;20488;-49
2023/02/26 13:04:25;;;;;;;1.50;0.52;;;;;;;0.23;100.00;98737.19;15283775;19;20019;-49
2023/02/26 13:10:03;;;;;;;1.33;0.50;;;;;;;0.15;100.00;98745.56;15279952;19;20018;-49
2023/02/26 13:15:44;;;;;;;2.50;0.70;;;;;;;0.12;100.00;98740.44;15281008;19;20011;-49
2023/02/26 13:21:13;;;;;;;1.48;0.70;;;;;;;0.14;100.00;98744.69;15280427;19;20074;-51
2023/02/26 13:26:40;;;;;;;1.10;0.75;;;;;;;0.17;100.00;98754.28;15282269;19;20036;-50
2023/02/26 13:32:12;;;;;;;1.33;0.60;;;;;;;0.25;100.00;98748.53;15281195;19;20019;-49
2023/02/26 13:37:42;;;;;;;1.55;0.60;;;;;;;0.18;100.00;98755.97;15283561;19;20373;-49
2023/02/26 13:43:13;;;;;;;1.05;0.60;;;;;;;0.00;100.00;98757.88;15280323;19;20387;-50
2023/02/26 13:48:51;;;;;;;0.52;0.50;;;;;;;0.09;100.00;98745.91;15285625;19;20029;-54
2023/02/26 13:54:36;;;;;;;0.80;0.50;;;;;;;0.17;100.00;98756.94;15290596;19;20035;-49
2023/02/26 14:00:11;;;;;;;0.40;0.40;;;;;;;0.51;100.00;98747.03;15291113;19;20025;-50
2023/02/26 14:06:15;;;;;;;0.40;0.40;;;;;;;0.63;100.00;98758.72;15284819;19;20039;-49
2023/02/26 14:11:47;;;;;;;0.40;0.40;;;;;;;0.41;100.00;98746.72;15288738;19;20018;-49
2023/02/26 14:17:36;;;;;;;0.85;0.43;;;;;;;0.59;100.00;98752.72;15295124;19;20014;-48
2023/02/26 14:23:44;;;;;;;0.73;0.50;;;;;;;0.86;100.00;98752.06;15341318;19;20038;-79
2023/02/26 14:29:16;;;;;;;1.35;0.60;;;;;;;0.70;100.00;98756.56;15300844;19;20019;-77
2023/02/26 14:34:45;;;;;;;1.90;0.70;;;;;;;0.77;100.00;98758.75;15299525;19;20565;-78
2023/02/26 14:40:17;;;;;;;3.30;0.60;;;;;;;0.44;100.00;98762.44;15307295;19;20014;-79
2023/02/26 14:45:46;;;;;;;0.50;0.50;;;;;;;0.30;100.00;98760.56;15299786;19;20081;-79
2023/02/26 14:51:30;;;;;;;0.60;0.60;;;;;;;0.26;100.00;98774.94;15307472;19;20356;-77
2023/02/26 14:57:10;;;;;;;2.45;0.60;;;;;;;0.76;100.00;98777.41;15310122;19;20010;-77
2023/02/26 15:02:49;;;;;;;0.70;0.60;;;;;;;1.12;100.00;98776.13;15298628;19;20070;-79
2023/02/26 15:08:27;;;;;;;1.52;0.70;;;;;;;1.04;100.00;98773.09;15303554;19;20010;-75
2023/02/26 15:14:20;;;;;;;1.08;0.60;;;;;;;0.39;100.00;98795.47;15309158;19;20011;-77
2023/02/26 15:19:59;;;;;;;1.50;0.70;;;;;;;0.22;100.00;98799.06;15303345;19;20046;-79
2023/02/26 15:25:30;;;;;;;1.85;0.90;;;;;;;0.04;100.00;98809.75;15314401;19;20023;-80
2023/02/26 15:31:02;;;;;;;1.08;0.73;;;;;;;-0.08;100.00;98803.34;15296241;19;20435;-78
2023/02/26 15:36:32;;;;;;;0.93;0.60;;;;;;;-0.13;100.00;98810.66;15305999;19;20009;-81
2023/02/26 15:42:00;;;;;;;1.90;1.00;;;;;;;-0.33;100.00;98804.69;15304012;19;20014;-76
2023/02/26 15:47:30;;;;;;;1.58;0.70;;;;;;;-0.29;100.00;98808.00;15299543;19;20010;-77
2023/02/26 15:53:00;;;;;;;0.90;0.63;;;;;;;-0.13;100.00;98815.97;15305638;19;20019;-79
2023/02/26 15:58:34;;;;;;;0.80;0.68;;;;;;;0.14;100.00;98815.41;15303552;19;20011;-78
2023/02/26 16:04:05;;;;;;;0.90;0.65;;;;;;;0.08;100.00;98821.00;15298526;19;20014;-77
2023/02/26 16:09:33;;;;;;;0.93;0.70;;;;;;;-0.15;100.00;98823.13;15309728;19;20010;-80
2023/02/26 16:15:01;;;;;;;1.05;0.60;;;;;;;-0.49;100.00;98820.53;15309314;19;20016;-76
2023/02/26 16:20:32;;;;;;;1.23;0.60;;;;;;;-0.71;100.00;98828.75;15319150;19;20018;-77
2023/02/26 16:26:01;;;;;;;2.03;0.60;;;;;;;-0.75;100.00;98831.63;15305759;19;20006;-77
2023/02/26 16:31:30;;;;;;;2.78;0.80;;;;;;;-0.88;100.00;98834.06;15308300;19;20479;-79
2023/02/26 16:36:58;;;;;;;1.60;0.73;;;;;;;-1.06;100.00;98839.34;15324187;19;20014;-77
2023/02/26 16:42:35;;;;;;;1.13;0.70;;;;;;;-1.22;100.00;98847.19;15328395;19;20019;-75
2023/02/26 16:48:04;;;;;;;2.28;0.75;;;;;;;-1.20;100.00;98855.91;15325513;19;20014;-75
2023/02/26 16:53:39;;;;;;;2.53;0.82;;;;;;;-1.28;100.00;98868.63;15318641;19;20488;-77
2023/02/26 16:59:11;;;;;;;2.45;0.90;;;;;;;-1.31;100.00;98874.94;15323761;19;20029;-73
2023/02/26 17:04:38;;;;;;;1.75;0.88;;;;;;;-1.34;100.00;98887.44;15329243;19;20029;-77
2023/02/26 17:10:12;;;;;;;3.03;1.00;;;;;;;-1.43;100.00;98894.03;15281697;19;20434;-75
2023/02/26 17:15:40;;;;;;;1.50;0.90;;;;;;;-1.49;100.00;98912.84;15284285;19;20078;-76
2023/02/26 17:21:12;;;;;;;1.52;0.73;;;;;;;-1.63;100.00;98913.47;15282243;19;20376;-77
2023/02/26 17:26:40;;;;;;;2.22;0.82;;;;;;;-1.67;100.00;98923.31;15294108;19;20031;-77
2023/02/26 17:32:04;;;;;;;1.95;1.00;;;;;;;-1.69;100.00;98938.38;15298318;19;20017;-78
2023/02/26 17:37:34;;;;;;;2.53;0.90;;;;;;;-1.74;100.00;98935.13;15301394;19;20017;-77
2023/02/26 17:43:03;;;;;;;1.77;1.02;;;;;;;-1.76;100.00;98936.97;15293796;19;20070;-77
2023/02/26 17:48:29;;;;;;;2.40;1.00;;;;;;;-1.86;100.00;98940.03;15301924;19;20017;-78
2023/02/26 17:53:54;;;;;;;1.48;0.80;;;;;;;-1.88;100.00;98955.09;15311127;19;20514;-78
2023/02/26 17:59:22;;;;;;;1.35;0.73;;;;;;;-1.95;100.00;98958.94;15302029;19;20361;-76
2023/02/26 18:04:46;;;;;;;1.15;0.70;;;;;;;-1.95;100.00;98968.63;15298999;19;20019;-76
2023/02/26 18:10:19;;;;;;;0.70;0.70;;;;;;;-1.99;100.00;98967.06;15297602;19;20015;-79
2023/02/26 18:15:49;;;;;;;2.33;0.90;;;;;;;-2.01;100.00;98975.06;15285212;19;20021;-77
2023/02/26 18:21:20;;;;;;;2.10;0.80;;;;;;;-2.05;100.00;98973.47;15294026;19;20022;-77
2023/02/26 18:26:45;;;;;;;2.03;0.90;;;;;;;-2.12;100.00;98972.91;15287214;19;20069;-77
2023/02/26 18:32:42;;;;;;;;;;;;;;;;;;;;;
2023/02/26 18:38:31;;;;;;;1.83;1.07;;;;;;;-2.11;100.00;98977.22;15287597;19;20018;-76
2023/02/26 18:43:55;;;;;;;1.92;1.00;;;;;;;-2.07;100.00;98985.91;15299480;19;20022;-77
2023/02/26 18:49:23;;;;;;;2.15;1.10;;;;;;;-2.10;100.00;98981.59;15296196;19;20025;-76
2023/02/26 18:54:48;;;;;;;2.55;1.10;;;;;;;-2.10;100.00;98996.59;15292469;19;20102;-76
2023/02/26 19:00:15;;;;;;;2.58;1.20;;;;;;;-2.21;100.00;98992.63;15297092;19;20025;-76
2023/02/26 19:05:42;;;;;;;2.63;1.40;;;;;;;-2.25;100.00;98998.97;15293691;19;20121;-75
2023/02/26 19:11:07;;;;;;;2.17;1.10;;;;;;;-2.27;100.00;99016.63;15296902;19;20106;-79
2023/02/26 19:16:36;;;;;;;2.70;1.08;;;;;;;-2.33;100.00;99022.19;15297733;19;20351;-75
2023/02/26 19:22:12;;;;;;;1.92;1.20;;;;;;;-2.41;100.00;99024.31;15294911;19;20010;-74
2023/02/26 19:27:39;;;;;;;0.98;0.90;;;;;;;-2.44;100.00;99030.56;15295293;19;20334;-75
2023/02/26 19:33:04;;;;;;;1.45;0.90;;;;;;;-2.51;100.00;99035.22;15314449;19;20050;-76
2023/02/26 19:38:32;;;;;;;2.63;1.10;;;;;;;-2.55;100.00;99046.84;15326765;19;20033;-77
2023/02/26 19:43:56;;;;;;;3.90;1.30;;;;;;;-2.54;100.00;99059.13;15296860;19;20014;-75
2023/02/26 19:49:22;;;;;;;2.08;1.67;;;;;;;-2.59;100.00;99079.53;15286944;19;20010;-76
2023/02/26 19:54:49;;;;;;;1.33;1.08;;;;;;;-2.73;100.00;99073.94;15285538;19;20018;-74
2023/02/26 20:00:15;;;;;;;3.20;1.33;;;;;;;-2.88;100.00;99076.28;15291742;19;20090;-75
2023/02/26 20:05:40;;;;;;;2.17;1.30;;;;;;;-2.97;100.00;99076.63;15291370;19;20036;-78
2023/02/26 20:11:08;;;;;;;2.88;0.98;;;;;;;-2.72;100.00;99094.13;15302240;19;20040;-78
2023/02/26 20:16:32;;;;;;;2.22;1.17;;;;;;;-2.56;100.00;99100.53;15302379;19;20357;-78
2023/02/26 20:21:57;;;;;;;2.38;1.10;;;;;;;-2.50;100.00;99105.53;15299959;19;20015;-78
2023/02/26 20:27:24;;;;;;;2.15;1.08;;;;;;;-2.39;100.00;99104.25;15337056;19;20038;-77
2023/02/26 20:32:49;;;;;;;2.10;1.30;;;;;;;-2.38;100.00;99105.97;15322680;19;20003;-78
2023/02/26 20:38:13;;;;;;;2.47;1.20;;;;;;;-2.48;100.00;99108.13;15309223;19;20031;-78
2023/02/26 20:43:41;;;;;;;2.58;1.20;;;;;;;-2.51;100.00;99108.25;15309204;19;20040;-80
2023/02/26 20:49:10;;;;;;;2.83;1.20;;;;;;;-2.42;100.00;99118.44;15306695;19;20104;-79
2023/02/26 20:54:35;;;;;;;2.25;1.10;;;;;;;-2.40;100.00;99121.00;15299246;19;20010;-79
2023/02/26 21:00:09;;;;;;;2.75;1.50;;;;;;;-2.46;100.00;99122.09;15302401;19;20525;-79
2023/02/26 21:05:34;;;;;;;3.25;1.40;;;;;;;-2.54;100.00;99126.84;15304052;19;20017;-78
2023/02/26 21:11:00;;;;;;;1.73;1.13;;;;;;;-2.63;100.00;99135.97;15302998;19;20030;-78
2023/02/26 21:16:29;;;;;;;3.03;1.20;;;;;;;-2.67;100.00;99147.56;15312156;19;20014;-80
2023/02/26 21:22:01;;;;;;;1.83;1.20;;;;;;;-2.79;100.00;99147.13;15309823;19;20022;-79
2023/02/26 21:27:26;;;;;;;1.58;1.20;;;;;;;-2.85;100.00;99150.00;15306906;19;20006;-79
2023/02/26 21:32:53;;;;;;;2.33;1.40;;;;;;;-2.94;100.00;99158.25;15310971;19;20368;-77
2023/02/26 21:38:18;;;;;;;1.65;1.10;;;;;;;-3.07;100.00;99157.88;15319380;19;20007;-80
2023/02/26 21:43:42;;;;;;;2.38;1.02;;;;;;;-3.10;100.00;99157.97;15322085;19;20489;-79
2023/02/26 21:49:10;;;;;;;2.22;1.30;;;;;;;-3.05;100.00;99163.91;15317843;19;20011;-79
2023/02/26 21:54:35;;;;;;;3.20;1.25;;;;;;;-3.03;100.00;99163.88;15316031;19;20011;-80
2023/02/26 22:00:00;;;;;;;1.40;1.10;;;;;;;-3.06;100.00;99159.59;15315917;19;20563;-78
2023/02/26 22:05:27;;;;;;;2.85;1.10;;;;;;;-3.07;100.00;99152.59;15330802;19;20456;-79
2023/02/26 22:10:52;;;;;;;1.92;1.20;;;;;;;-3.10;100.00;99163.25;15362230;19;20047;-77
2023/02/26 22:16:16;;;;;;;1.77;1.10;;;;;;;-3.14;100.00;99167.78;15316193;19;20469;-78
2023/02/26 22:21:50;;;;;;;2.47;1.30;;;;;;;-3.20;100.00;99169.78;15318638;19;20022;-78
2023/02/26 22:27:15;;;;;;;2.15;1.40;;;;;;;-3.50;100.00;99168.19;15324227;19;20485;-78
2023/02/26 22:32:39;;;;;;;2.60;1.83;;;;;;;-3.67;100.00;99174.06;15325581;19;20036;-78
2023/02/26 22:38:07;;;;;;;2.70;1.70;;;;;;;-3.89;100.00;99180.06;15339411;19;20022;-77
2023/02/26 22:43:32;;;;;;;2.28;1.60;;;;;;;-4.07;100.00;99185.91;15338382;19;20031;-79
2023/02/26 22:48:58;;;;;;;2.58;1.58;;;;;;;-4.13;100.00;99191.41;15335606;19;20007;-79
2023/02/26 22:54:25;;;;;;;1.67;1.30;;;;;;;-4.21;100.00;99191.63;15334178;19;20015;-80
2023/02/26 22:59:50;;;;;;;2.80;1.38;;;;;;;-4.32;100.00;99191.13;15329986;19;20488;-78
2023/02/26 23:05:18;;;;;;;1.55;1.23;;;;;;;-4.44;100.00;99195.84;15302309;19;20007;-79
2023/02/26 23:10:46;;;;;;;2.45;1.60;;;;;;;-4.57;100.00;99202.41;15308739;19;20014;-79
2023/02/26 23:16:11;;;;;;;2.88;1.40;;;;;;;-4.69;100.00;99204.50;15312873;19;20010;-79
2023/02/26 23:21:42;;;;;;;2.30;1.42;;;;;;;-4.82;100.00;99203.97;15306491;19;20019;-80
2023/02/26 23:27:10;;;;;;;1.58;1.23;;;;;;;-4.94;100.00;99201.75;15306853;19;20088;-79
2023/02/26 23:32:34;;;;;;;3.03;1.42;;;;;;;-5.00;100.00;99199.28;15308796;19;20076;-79
2023/02/26 23:37:59;;;;;;;1.80;1.10;;;;;;;-5.11;100.00;99207.44;15304474;19;20050;-78
2023/02/26 23:43:26;;;;;;;2.17;1.60;;;;;;;-5.14;100.00;99210.19;15306518;19;20070;-79
2023/02/26 23:48:51;;;;;;;2.08;1.17;;;;;;;-5.14;100.00;99215.44;15301828;19;20031;-78
2023/02/26 23:54:15;;;;;;;1.45;1.13;;;;;;;-5.06;100.00;99221.34;15307301;19;20035;-79
2023/02/26 23:59:43;;;;;;;2.15;1.27;;;;;;;-5.18;100.00;99214.66;15304071;19;20390;-78
